AZU4840 SBBE-SBMQ
Flight info
| Callsign | AZU4840 |
|---|---|
| Flight time | 0h 34m |
| Altitude | 28000 |
| Route | KOGVU DCT MCP |
| Aircraft | A20N/M-SDE2E3FGHIRWXY/LB1 |
Departure
| Time | 2026-04-23 20:36 |
|---|---|
| Airport | Val de Cans/Júlio Cezar Ribeiro International Airport (SBBE) |
Arrival
| Time | 2026-04-23 21:10 |
|---|---|
| Airport | Macapá - Alberto Alcolumbre International Airport (SBMQ) |
| Time | Latitude | Longitude | Altitude | Speed | Heading |
|---|---|---|---|---|---|
| 2026-04-23 20:06 | -1.39088 | -48.47896 | 39 ft | 0 kts | 275° |
| 2026-04-23 20:26 | -1.39089 | -48.47884 | 38 ft | 2 kts | 275° |
| 2026-04-23 20:27 | -1.39091 | -48.47867 | 38 ft | 2 kts | 275° |
| 2026-04-23 20:27 | -1.39092 | -48.47851 | 38 ft | 2 kts | 255° |
| 2026-04-23 20:27 | -1.39084 | -48.47837 | 35 ft | 2 kts | 194° |
| 2026-04-23 20:27 | -1.39068 | -48.47835 | 37 ft | 2 kts | 183° |
| 2026-04-23 20:28 | -1.39052 | -48.47834 | 37 ft | 2 kts | 185° |
| 2026-04-23 20:28 | -1.39036 | -48.47833 | 38 ft | 2 kts | 189° |
| 2026-04-23 20:28 | -1.39020 | -48.47829 | 36 ft | 2 kts | 195° |
| 2026-04-23 20:28 | -1.39004 | -48.47825 | 36 ft | 2 kts | 195° |
| 2026-04-23 20:29 | -1.38988 | -48.47822 | 37 ft | 2 kts | 181° |
| 2026-04-23 20:29 | -1.38985 | -48.47822 | 36 ft | 0 kts | 181° |
| 2026-04-23 20:29 | -1.38991 | -48.47822 | 37 ft | 4 kts | 182° |
| 2026-04-23 20:30 | -1.39023 | -48.47796 | 39 ft | 9 kts | 105° |
| 2026-04-23 20:30 | -1.38970 | -48.47707 | 39 ft | 10 kts | 4° |
| 2026-04-23 20:30 | -1.38906 | -48.47703 | 39 ft | 9 kts | 5° |
| 2026-04-23 20:31 | -1.38848 | -48.47698 | 39 ft | 8 kts | 5° |
| 2026-04-23 20:31 | -1.38798 | -48.47694 | 39 ft | 7 kts | 5° |
| 2026-04-23 20:31 | -1.38756 | -48.47691 | 38 ft | 6 kts | 4° |
| 2026-04-23 20:31 | -1.38720 | -48.47688 | 39 ft | 5 kts | 4° |
| 2026-04-23 20:32 | -1.38680 | -48.47694 | 37 ft | 6 kts | 323° |
| 2026-04-23 20:32 | -1.38666 | -48.47740 | 39 ft | 9 kts | 271° |
| 2026-04-23 20:32 | -1.38668 | -48.47805 | 39 ft | 9 kts | 269° |
| 2026-04-23 20:32 | -1.38669 | -48.47864 | 39 ft | 8 kts | 269° |
| 2026-04-23 20:33 | -1.38671 | -48.47923 | 39 ft | 9 kts | 269° |
| 2026-04-23 20:33 | -1.38672 | -48.47993 | 39 ft | 10 kts | 269° |
| 2026-04-23 20:33 | -1.38674 | -48.48072 | 39 ft | 13 kts | 269° |
| 2026-04-23 20:33 | -1.38676 | -48.48157 | 39 ft | 12 kts | 268° |
| 2026-04-23 20:34 | -1.38679 | -48.48233 | 39 ft | 10 kts | 268° |
| 2026-04-23 20:34 | -1.38681 | -48.48301 | 39 ft | 9 kts | 269° |
| 2026-04-23 20:34 | -1.38670 | -48.48352 | 39 ft | 6 kts | 330° |
| 2026-04-23 20:34 | -1.38641 | -48.48335 | 39 ft | 2 kts | 44° |
| 2026-04-23 20:35 | -1.38610 | -48.48305 | 39 ft | 28 kts | 45° |
| 2026-04-23 20:35 | -1.38282 | -48.47974 | 39 ft | 102 kts | 45° |
| 2026-04-23 20:35 | -1.37645 | -48.47331 | 43 ft | 156 kts | 45° |
| 2026-04-23 20:35 | -1.36861 | -48.46557 | 649 ft | 158 kts | 46° |
| 2026-04-23 20:36 | -1.36049 | -48.45731 | 1048 ft | 177 kts | 45° |
| 2026-04-23 20:36 | -1.35126 | -48.44830 | 1379 ft | 199 kts | 35° |
| 2026-04-23 20:36 | -1.33740 | -48.44471 | 1715 ft | 223 kts | 351° |
| 2026-04-23 20:36 | -1.32314 | -48.45196 | 2198 ft | 243 kts | 317° |
| 2026-04-23 20:37 | -1.31216 | -48.46512 | 2987 ft | 250 kts | 306° |
| 2026-04-23 20:37 | -1.30240 | -48.47983 | 3737 ft | 258 kts | 304° |
| 2026-04-23 20:37 | -1.29256 | -48.49508 | 4514 ft | 264 kts | 304° |
| 2026-04-23 20:37 | -1.28220 | -48.51042 | 5317 ft | 269 kts | 306° |
| 2026-04-23 20:38 | -1.27132 | -48.52575 | 6164 ft | 272 kts | 307° |
| 2026-04-23 20:38 | -1.26068 | -48.54159 | 6962 ft | 277 kts | 301° |
| 2026-04-23 20:38 | -1.25078 | -48.55827 | 7741 ft | 281 kts | 302° |
| 2026-04-23 20:38 | -1.24054 | -48.57503 | 8531 ft | 284 kts | 302° |
| 2026-04-23 20:39 | -1.23005 | -48.59196 | 9277 ft | 288 kts | 303° |
| 2026-04-23 20:39 | -1.21941 | -48.60906 | 10021 ft | 292 kts | 303° |
| 2026-04-23 20:39 | -1.20860 | -48.62647 | 10704 ft | 296 kts | 303° |
| 2026-04-23 20:39 | -1.19775 | -48.64402 | 11387 ft | 299 kts | 303° |
| 2026-04-23 20:40 | -1.18678 | -48.66183 | 12073 ft | 303 kts | 303° |
| 2026-04-23 20:40 | -1.17567 | -48.67986 | 12755 ft | 307 kts | 303° |
| 2026-04-23 20:40 | -1.16440 | -48.69813 | 13438 ft | 311 kts | 303° |
| 2026-04-23 20:40 | -1.15297 | -48.71664 | 14065 ft | 315 kts | 303° |
| 2026-04-23 20:41 | -1.14142 | -48.73535 | 14655 ft | 318 kts | 303° |
| 2026-04-23 20:41 | -1.12972 | -48.75424 | 15237 ft | 321 kts | 303° |
| 2026-04-23 20:41 | -1.11791 | -48.77333 | 15822 ft | 325 kts | 303° |
| 2026-04-23 20:41 | -1.10599 | -48.79261 | 16405 ft | 328 kts | 303° |
| 2026-04-23 20:42 | -1.09396 | -48.81208 | 16982 ft | 331 kts | 303° |
| 2026-04-23 20:42 | -1.08181 | -48.83174 | 17561 ft | 334 kts | 303° |
| 2026-04-23 20:42 | -1.06972 | -48.85134 | 18121 ft | 337 kts | 303° |
| 2026-04-23 20:42 | -1.05736 | -48.87139 | 18609 ft | 340 kts | 303° |
| 2026-04-23 20:43 | -1.04479 | -48.89180 | 18889 ft | 352 kts | 303° |
| 2026-04-23 20:43 | -1.03164 | -48.91313 | 19008 ft | 369 kts | 303° |
| 2026-04-23 20:43 | -1.01789 | -48.93540 | 19125 ft | 384 kts | 303° |
| 2026-04-23 20:43 | -1.00357 | -48.95860 | 19261 ft | 399 kts | 303° |
| 2026-04-23 20:44 | -0.98884 | -48.98246 | 19595 ft | 406 kts | 302° |
| 2026-04-23 20:44 | -0.97395 | -49.00660 | 20016 ft | 410 kts | 302° |
| 2026-04-23 20:44 | -0.95896 | -49.03093 | 20454 ft | 412 kts | 302° |
| 2026-04-23 20:44 | -0.94391 | -49.05536 | 20884 ft | 415 kts | 302° |
| 2026-04-23 20:45 | -0.92868 | -49.08006 | 21317 ft | 418 kts | 301° |
| 2026-04-23 20:45 | -0.91495 | -49.10568 | 21742 ft | 420 kts | 297° |
| 2026-04-23 20:45 | -0.90185 | -49.13190 | 22164 ft | 423 kts | 296° |
| 2026-04-23 20:45 | -0.88901 | -49.15846 | 22581 ft | 426 kts | 296° |
| 2026-04-23 20:46 | -0.87622 | -49.18525 | 22976 ft | 428 kts | 296° |
| 2026-04-23 20:46 | -0.86337 | -49.21220 | 23366 ft | 431 kts | 296° |
| 2026-04-23 20:46 | -0.85036 | -49.23931 | 23701 ft | 434 kts | 296° |
| 2026-04-23 20:46 | -0.83719 | -49.26655 | 23864 ft | 436 kts | 296° |
| 2026-04-23 20:47 | -0.82413 | -49.29353 | 23899 ft | 430 kts | 296° |
| 2026-04-23 20:47 | -0.81116 | -49.32052 | 23899 ft | 427 kts | 296° |
| 2026-04-23 20:47 | -0.79835 | -49.34702 | 23909 ft | 421 kts | 296° |
| 2026-04-23 20:47 | -0.78560 | -49.37330 | 23909 ft | 420 kts | 296° |
| 2026-04-23 20:48 | -0.77285 | -49.39951 | 23906 ft | 419 kts | 296° |
| 2026-04-23 20:48 | -0.76010 | -49.42571 | 23906 ft | 419 kts | 296° |
| 2026-04-23 20:48 | -0.74734 | -49.45189 | 23906 ft | 419 kts | 296° |
| 2026-04-23 20:48 | -0.73457 | -49.47806 | 23907 ft | 419 kts | 296° |
| 2026-04-23 20:49 | -0.72179 | -49.50422 | 23907 ft | 419 kts | 296° |
| 2026-04-23 20:49 | -0.70923 | -49.53005 | 23909 ft | 419 kts | 296° |
| 2026-04-23 20:49 | -0.69637 | -49.55655 | 23912 ft | 418 kts | 296° |
| 2026-04-23 20:49 | -0.68386 | -49.58235 | 23911 ft | 418 kts | 296° |
| 2026-04-23 20:50 | -0.67119 | -49.60850 | 23907 ft | 418 kts | 296° |
| 2026-04-23 20:50 | -0.65855 | -49.63461 | 23903 ft | 418 kts | 296° |
| 2026-04-23 20:50 | -0.64587 | -49.66071 | 23901 ft | 417 kts | 296° |
| 2026-04-23 20:50 | -0.63319 | -49.68679 | 23898 ft | 417 kts | 296° |
| 2026-04-23 20:51 | -0.62051 | -49.71287 | 23901 ft | 417 kts | 296° |
| 2026-04-23 20:51 | -0.60783 | -49.73894 | 23900 ft | 417 kts | 296° |
| 2026-04-23 20:51 | -0.59514 | -49.76501 | 23903 ft | 417 kts | 296° |
| 2026-04-23 20:51 | -0.58248 | -49.79109 | 23905 ft | 417 kts | 296° |
| 2026-04-23 20:52 | -0.56985 | -49.81719 | 23850 ft | 416 kts | 296° |
| 2026-04-23 20:52 | -0.55721 | -49.84328 | 23211 ft | 418 kts | 296° |
| 2026-04-23 20:52 | -0.54868 | -49.86088 | 22828 ft | 417 kts | 296° |
| 2026-04-23 20:52 | -0.53610 | -49.88683 | 22305 ft | 413 kts | 296° |
| 2026-04-23 20:53 | -0.52357 | -49.91257 | 21788 ft | 411 kts | 296° |
| 2026-04-23 20:53 | -0.51106 | -49.93823 | 21272 ft | 409 kts | 296° |
| 2026-04-23 20:53 | -0.49866 | -49.96364 | 20767 ft | 407 kts | 296° |
| 2026-04-23 20:53 | -0.48650 | -49.98862 | 20371 ft | 402 kts | 296° |
| 2026-04-23 20:54 | -0.47429 | -50.01375 | 19882 ft | 401 kts | 296° |
| 2026-04-23 20:54 | -0.46220 | -50.03861 | 19505 ft | 396 kts | 297° |
| 2026-04-23 20:54 | -0.45019 | -50.06336 | 18896 ft | 398 kts | 296° |
| 2026-04-23 20:54 | -0.43806 | -50.08839 | 18321 ft | 401 kts | 297° |
| 2026-04-23 20:55 | -0.42593 | -50.11339 | 17852 ft | 398 kts | 297° |
| 2026-04-23 20:55 | -0.41398 | -50.13794 | 17588 ft | 388 kts | 297° |
| 2026-04-23 20:55 | -0.40228 | -50.16205 | 17181 ft | 384 kts | 297° |
| 2026-04-23 20:55 | -0.39065 | -50.18600 | 16690 ft | 383 kts | 297° |
| 2026-04-23 20:56 | -0.37904 | -50.20988 | 16252 ft | 380 kts | 297° |
| 2026-04-23 20:56 | -0.36762 | -50.23332 | 15991 ft | 373 kts | 297° |
| 2026-04-23 20:56 | -0.35628 | -50.25655 | 15530 ft | 371 kts | 297° |
| 2026-04-23 20:56 | -0.34500 | -50.27968 | 15119 ft | 369 kts | 297° |
| 2026-04-23 20:57 | -0.33381 | -50.30266 | 14718 ft | 367 kts | 297° |
| 2026-04-23 20:57 | -0.32273 | -50.32550 | 14320 ft | 364 kts | 297° |
| 2026-04-23 20:57 | -0.31174 | -50.34818 | 13937 ft | 362 kts | 297° |
| 2026-04-23 20:57 | -0.30081 | -50.37073 | 13481 ft | 361 kts | 297° |
| 2026-04-23 20:58 | -0.28988 | -50.39331 | 12945 ft | 361 kts | 297° |
| 2026-04-23 20:58 | -0.27896 | -50.41580 | 12489 ft | 358 kts | 297° |
| 2026-04-23 20:58 | -0.26812 | -50.43812 | 12061 ft | 355 kts | 297° |
| 2026-04-23 20:58 | -0.25735 | -50.46023 | 11626 ft | 352 kts | 297° |
| 2026-04-23 20:59 | -0.24666 | -50.48216 | 11201 ft | 350 kts | 296° |
| 2026-04-23 20:59 | -0.23606 | -50.50392 | 10773 ft | 347 kts | 296° |
| 2026-04-23 20:59 | -0.22556 | -50.52554 | 10348 ft | 345 kts | 296° |
| 2026-04-23 20:59 | -0.21516 | -50.54700 | 9932 ft | 342 kts | 296° |
| 2026-04-23 21:00 | -0.20481 | -50.56831 | 9486 ft | 340 kts | 296° |
| 2026-04-23 21:00 | -0.19451 | -50.58944 | 9026 ft | 337 kts | 296° |
| 2026-04-23 21:00 | -0.18427 | -50.61040 | 8587 ft | 334 kts | 296° |
| 2026-04-23 21:00 | -0.17424 | -50.63092 | 8149 ft | 332 kts | 296° |
| 2026-04-23 21:01 | -0.16406 | -50.65184 | 7713 ft | 329 kts | 296° |
| 2026-04-23 21:01 | -0.15410 | -50.67233 | 7287 ft | 327 kts | 296° |
| 2026-04-23 21:01 | -0.14438 | -50.69236 | 6863 ft | 324 kts | 296° |
| 2026-04-23 21:01 | -0.13456 | -50.71254 | 6436 ft | 322 kts | 296° |
| 2026-04-23 21:02 | -0.12480 | -50.73255 | 5986 ft | 319 kts | 296° |
| 2026-04-23 21:02 | -0.11512 | -50.75241 | 5520 ft | 317 kts | 296° |
| 2026-04-23 21:02 | -0.10554 | -50.77214 | 5063 ft | 314 kts | 296° |
| 2026-04-23 21:02 | -0.09614 | -50.79150 | 4852 ft | 303 kts | 297° |
| 2026-04-23 21:03 | -0.08707 | -50.81018 | 4542 ft | 296 kts | 297° |
| 2026-04-23 21:03 | -0.07812 | -50.82859 | 4145 ft | 293 kts | 297° |
| 2026-04-23 21:03 | -0.06926 | -50.84683 | 3723 ft | 291 kts | 297° |
| 2026-04-23 21:03 | -0.06048 | -50.86495 | 3309 ft | 289 kts | 297° |
| 2026-04-23 21:04 | -0.05176 | -50.88291 | 2876 ft | 286 kts | 296° |
| 2026-04-23 21:04 | -0.04312 | -50.90071 | 2452 ft | 283 kts | 296° |
| 2026-04-23 21:04 | -0.03453 | -50.91833 | 2021 ft | 281 kts | 296° |
| 2026-04-23 21:04 | -0.02599 | -50.93583 | 1685 ft | 279 kts | 296° |
| 2026-04-23 21:05 | -0.01763 | -50.95297 | 1635 ft | 266 kts | 296° |
| 2026-04-23 21:05 | -0.00975 | -50.96919 | 1651 ft | 251 kts | 296° |
| 2026-04-23 21:05 | -0.00242 | -50.98430 | 1650 ft | 233 kts | 296° |
| 2026-04-23 21:05 | 0.00446 | -50.99841 | 1633 ft | 219 kts | 296° |
| 2026-04-23 21:06 | 0.01092 | -51.01163 | 1632 ft | 207 kts | 296° |
| 2026-04-23 21:06 | 0.01713 | -51.02440 | 1632 ft | 202 kts | 296° |
| 2026-04-23 21:06 | 0.02227 | -51.03728 | 1634 ft | 200 kts | 281° |
| 2026-04-23 21:06 | 0.02225 | -51.05110 | 1634 ft | 200 kts | 257° |
| 2026-04-23 21:07 | 0.01664 | -51.06371 | 1634 ft | 201 kts | 237° |
| 2026-04-23 21:07 | 0.00899 | -51.07538 | 1632 ft | 201 kts | 238° |
| 2026-04-23 21:07 | 0.00149 | -51.08716 | 1565 ft | 200 kts | 238° |
| 2026-04-23 21:07 | -0.00587 | -51.09894 | 1560 ft | 200 kts | 239° |
| 2026-04-23 21:08 | -0.01085 | -51.11118 | 1572 ft | 182 kts | 264° |
| 2026-04-23 21:08 | -0.00860 | -51.12282 | 1481 ft | 167 kts | 304° |
| 2026-04-23 21:08 | -0.00024 | -51.13013 | 1324 ft | 158 kts | 336° |
| 2026-04-23 21:08 | 0.01001 | -51.13128 | 1185 ft | 147 kts | 22° |
| 2026-04-23 21:09 | 0.01699 | -51.12420 | 1025 ft | 145 kts | 58° |
| 2026-04-23 21:09 | 0.02235 | -51.11575 | 864 ft | 144 kts | 56° |
| 2026-04-23 21:09 | 0.02781 | -51.10745 | 699 ft | 142 kts | 56° |
| 2026-04-23 21:09 | 0.03315 | -51.09918 | 520 ft | 141 kts | 57° |
| 2026-04-23 21:10 | 0.03844 | -51.09101 | 310 ft | 139 kts | 57° |
| 2026-04-23 21:10 | 0.04371 | -51.08289 | 126 ft | 139 kts | 58° |
| 2026-04-23 21:10 | 0.04881 | -51.07496 | 29 ft | 125 kts | 58° |
| 2026-04-23 21:10 | 0.05213 | -51.06983 | 30 ft | 39 kts | 57° |
| 2026-04-23 21:11 | 0.05229 | -51.06916 | 29 ft | 7 kts | 132° |
| 2026-04-23 21:11 | 0.05192 | -51.06891 | 28 ft | 7 kts | 146° |
| 2026-04-23 21:11 | 0.05152 | -51.06864 | 27 ft | 7 kts | 146° |
| 2026-04-23 21:11 | 0.05115 | -51.06844 | 27 ft | 5 kts | 166° |
| 2026-04-23 21:12 | 0.05097 | -51.06862 | 27 ft | 3 kts | 229° |
| 2026-04-23 21:12 | 0.05071 | -51.06855 | 27 ft | 5 kts | 146° |
| 2026-04-23 21:12 | 0.05044 | -51.06837 | 27 ft | 4 kts | 147° |
| 2026-04-23 21:12 | 0.05027 | -51.06826 | 27 ft | 0 kts | 147° |
| 2026-04-23 21:15 | 0.05049 | -51.06840 | 27 ft | 0 kts | 147° |